createdAt,value
2019-03-27T00:02:02.266Z,75.50
2019-03-27T00:04:30.713Z,76.20
2019-03-27T00:06:59.078Z,76.80
2019-03-27T00:09:27.461Z,77.40
2019-03-27T00:11:55.872Z,77.20
2019-03-27T00:14:24.248Z,77.90
2019-03-27T00:16:52.982Z,78.60
2019-03-27T00:19:21.458Z,79.10
2019-03-27T00:21:49.854Z,79.80
2019-03-27T00:24:18.207Z,80.40
2019-03-27T00:26:46.656Z,81.30
2019-03-27T00:29:14.943Z,82.00
2019-03-27T00:31:43.321Z,83.00
2019-03-27T00:34:11.710Z,84.10
2019-03-27T00:36:40.163Z,84.40
2019-03-27T00:39:08.593Z,86.20
2019-03-27T00:41:36.991Z,88.50
2019-03-27T00:44:05.460Z,87.60
2019-03-27T00:46:33.809Z,87.80
2019-03-27T00:49:02.193Z,87.70
2019-03-27T00:51:30.596Z,87.90
2019-03-27T00:53:59.021Z,88.50
2019-03-27T00:56:28.083Z,88.80
2019-03-27T00:58:56.486Z,89.10
2019-03-27T01:01:24.869Z,89.50
2019-03-27T01:03:53.328Z,90.10
2019-03-27T01:06:21.725Z,90.60
2019-03-27T01:08:50.127Z,90.50
2019-03-27T01:11:18.509Z,90.80
2019-03-27T01:13:46.897Z,90.80
2019-03-27T01:16:15.336Z,91.20
2019-03-27T01:18:44.065Z,91.80
2019-03-27T01:21:12.514Z,92.10
2019-03-27T01:23:40.962Z,93.40
2019-03-27T01:26:09.342Z,93.90
2019-03-27T01:28:37.712Z,94.60
2019-03-27T01:31:06.064Z,94.50
2019-03-27T01:33:34.469Z,94.60
2019-03-27T01:36:02.972Z,94.50
2019-03-27T01:38:31.345Z,94.80
2019-03-27T01:40:59.743Z,94.80
2019-03-27T01:43:28.125Z,94.70
2019-03-27T01:45:56.513Z,94.70
2019-03-27T01:48:24.925Z,94.80
2019-03-27T01:50:53.386Z,94.90
2019-03-27T01:53:21.792Z,95.00
2019-03-27T01:55:50.193Z,95.10
2019-03-27T01:58:18.574Z,95.10
2019-03-27T02:00:47.051Z,95.20
2019-03-27T02:03:15.434Z,95.30
2019-03-27T02:05:43.825Z,95.30
2019-03-27T02:08:12.186Z,95.30
2019-03-27T02:10:40.554Z,95.70
2019-03-27T02:13:08.942Z,95.60
2019-03-27T02:15:38.026Z,95.60
2019-03-27T02:18:06.391Z,95.50
2019-03-27T02:20:34.809Z,95.60
2019-03-27T02:23:03.179Z,95.80
2019-03-27T02:25:31.573Z,95.80
2019-03-27T02:27:59.950Z,95.80
2019-03-27T02:30:28.410Z,95.70
2019-03-27T02:32:56.924Z,95.70
2019-03-27T02:35:25.325Z,95.80
2019-03-27T02:37:53.738Z,96.00
2019-03-27T02:40:22.222Z,96.30
2019-03-27T02:42:50.639Z,96.00
2019-03-27T02:45:19.007Z,96.10
2019-03-27T02:47:47.486Z,96.10
2019-03-27T02:50:15.869Z,96.30
2019-03-27T02:52:44.266Z,96.40
2019-03-27T02:55:12.707Z,96.40
2019-03-27T02:57:41.007Z,96.50
2019-03-27T03:00:12.572Z,96.50
2019-03-27T03:02:40.941Z,96.60
2019-03-27T03:05:10.017Z,96.60
2019-03-27T03:07:38.396Z,96.60
2019-03-27T03:10:07.901Z,96.70
2019-03-27T03:12:36.269Z,96.70
2019-03-27T03:15:05.846Z,96.60
2019-03-27T03:17:35.293Z,96.70
2019-03-27T03:20:05.322Z,96.70
2019-03-27T03:22:33.779Z,96.60
2019-03-27T03:25:02.240Z,96.60
2019-03-27T03:27:30.635Z,96.60
2019-03-27T03:29:59.034Z,96.60
2019-03-27T03:32:27.439Z,96.60
2019-03-27T03:34:55.802Z,96.60
2019-03-27T03:37:24.203Z,96.60
2019-03-27T03:39:52.576Z,96.70
2019-03-27T03:42:21.077Z,96.90
2019-03-27T03:44:49.448Z,96.80
2019-03-27T03:47:17.838Z,96.70
2019-03-27T03:49:46.206Z,96.70
2019-03-27T03:52:14.599Z,96.70
2019-03-27T03:54:42.986Z,96.70
2019-03-27T03:57:12.110Z,96.70
2019-03-27T03:59:40.492Z,96.70
2019-03-27T04:02:08.850Z,96.60
2019-03-27T04:04:37.315Z,96.50
2019-03-27T04:07:05.772Z,96.50
2019-03-27T04:09:34.145Z,96.50
2019-03-27T04:12:02.577Z,96.60
2019-03-27T04:14:30.930Z,96.40
2019-03-27T04:17:15.832Z,96.40
2019-03-27T04:19:29.395Z,96.50
2019-03-27T04:21:57.814Z,96.40
2019-03-27T04:24:26.170Z,96.50
2019-03-27T04:26:54.530Z,96.40
2019-03-27T04:29:22.987Z,96.40
2019-03-27T04:31:51.406Z,96.60
2019-03-27T04:34:19.892Z,96.50
2019-03-27T04:36:49.103Z,96.60
2019-03-27T04:39:17.482Z,96.70
2019-03-27T04:41:45.788Z,96.80
2019-03-27T04:44:14.171Z,96.70
2019-03-27T04:46:42.535Z,96.60
2019-03-27T04:49:10.995Z,96.60
2019-03-27T04:51:39.392Z,96.70
2019-03-27T04:54:09.804Z,96.80
2019-03-27T04:56:37.891Z,96.90
2019-03-27T04:59:06.265Z,96.70
2019-03-27T05:01:34.844Z,96.80
2019-03-27T05:04:03.678Z,96.70
2019-03-27T05:06:32.101Z,96.80
2019-03-27T05:09:00.459Z,96.70
2019-03-27T05:11:28.847Z,96.60
2019-03-27T05:13:57.280Z,96.50
2019-03-27T05:16:26.095Z,96.40
2019-03-27T05:18:54.474Z,96.40
2019-03-27T05:21:22.846Z,96.30
2019-03-27T05:23:51.139Z,96.20
2019-03-27T05:26:19.560Z,96.10
2019-03-27T05:28:47.986Z,96.20
2019-03-27T05:31:16.358Z,96.10
2019-03-27T05:33:44.898Z,96.00
2019-03-27T05:36:13.270Z,95.90
2019-03-27T05:38:41.670Z,96.30
2019-03-27T05:41:10.060Z,95.80
2019-03-27T05:43:38.440Z,95.60
2019-03-27T05:46:06.863Z,95.40
2019-03-27T05:48:35.374Z,95.30
2019-03-27T05:51:03.776Z,95.10
2019-03-27T05:53:32.237Z,95.20
2019-03-27T05:56:00.601Z,95.10
2019-03-27T05:58:29.009Z,94.90
2019-03-27T06:00:57.401Z,94.80
2019-03-27T06:03:25.797Z,94.60
2019-03-27T06:05:54.173Z,94.70
2019-03-27T06:08:22.613Z,94.90
2019-03-27T06:10:50.977Z,94.90
2019-03-27T06:13:19.985Z,94.50
2019-03-27T06:15:48.379Z,94.70
2019-03-27T06:18:16.781Z,94.60
2019-03-27T06:20:45.142Z,94.50
2019-03-27T06:23:13.534Z,94.60
2019-03-27T06:25:41.907Z,94.70
2019-03-27T06:28:10.266Z,94.90
2019-03-27T06:30:38.658Z,94.90
2019-03-27T06:33:07.022Z,94.70
2019-03-27T06:35:35.598Z,94.70
2019-03-27T06:38:03.938Z,94.80
2019-03-27T06:40:32.289Z,94.70
2019-03-27T06:43:00.613Z,94.70
2019-03-27T06:45:28.971Z,94.40
2019-03-27T06:47:57.383Z,94.70
2019-03-27T06:50:25.749Z,94.70
2019-03-27T06:52:55.069Z,94.50
2019-03-27T06:55:23.437Z,94.30
2019-03-27T06:57:51.754Z,94.00
2019-03-27T07:00:23.454Z,94.00
2019-03-27T07:02:51.843Z,93.80
2019-03-27T07:05:20.233Z,93.90
2019-03-27T07:07:48.600Z,93.70
2019-03-27T07:10:16.974Z,93.50
2019-03-27T07:12:45.380Z,93.70
2019-03-27T07:15:13.798Z,93.70
2019-03-27T07:17:42.186Z,93.50
2019-03-27T07:20:10.843Z,93.50
2019-03-27T07:22:39.279Z,93.50
2019-03-27T07:25:07.743Z,93.40
2019-03-27T07:27:36.106Z,93.30
2019-03-27T07:30:06.126Z,93.10
2019-03-27T07:32:34.493Z,92.40
2019-03-27T07:35:02.887Z,91.80
2019-03-27T07:37:31.249Z,91.50
2019-03-27T07:39:59.544Z,91.40
2019-03-27T07:42:29.040Z,91.30
2019-03-27T07:44:57.496Z,91.10
2019-03-27T07:47:25.872Z,91.00
2019-03-27T07:49:54.253Z,90.70
2019-03-27T07:52:22.692Z,91.40
2019-03-27T07:54:51.997Z,91.20
2019-03-27T07:57:20.400Z,91.00
2019-03-27T07:59:48.763Z,91.00
2019-03-27T08:02:17.154Z,90.90
2019-03-27T08:04:45.553Z,90.50
2019-03-27T08:07:26.315Z,90.30
2019-03-27T08:09:43.918Z,89.70
2019-03-27T08:12:12.330Z,90.10
2019-03-27T08:14:40.701Z,87.80
2019-03-27T08:17:09.081Z,86.80
2019-03-27T08:19:37.467Z,87.40
2019-03-27T08:22:05.922Z,86.20
2019-03-27T08:24:34.234Z,86.60
2019-03-27T08:27:02.605Z,86.60
2019-03-27T08:29:30.975Z,86.90
2019-03-27T08:31:59.385Z,86.70
2019-03-27T08:34:27.815Z,85.60
2019-03-27T08:36:56.237Z,85.20
2019-03-27T08:39:24.586Z,83.00
2019-03-27T08:41:52.969Z,81.90
2019-03-27T08:44:21.330Z,82.50
2019-03-27T08:46:49.731Z,82.70
2019-03-27T08:49:22.313Z,82.60
2019-03-27T08:51:49.028Z,82.40
2019-03-27T08:54:17.417Z,82.50
2019-03-27T08:56:45.782Z,82.20
2019-03-27T08:59:14.234Z,81.70
2019-03-27T09:01:42.682Z,80.60
2019-03-27T09:04:11.079Z,81.70
2019-03-27T09:06:39.443Z,81.80
2019-03-27T09:09:08.276Z,81.40
2019-03-27T09:11:36.900Z,80.90
2019-03-27T09:14:05.212Z,80.40
2019-03-27T09:16:33.642Z,79.00
2019-03-27T09:19:02.003Z,77.60
2019-03-27T09:21:30.403Z,75.50
2019-03-27T09:23:58.720Z,74.10
2019-03-27T09:26:27.086Z,72.70
2019-03-27T09:28:55.377Z,72.80
2019-03-27T09:31:23.686Z,74.60
2019-03-27T09:33:52.001Z,76.50
2019-03-27T09:36:20.377Z,76.40
2019-03-27T09:38:48.761Z,77.70
2019-03-27T09:41:17.117Z,77.60
2019-03-27T09:43:45.477Z,76.40
2019-03-27T09:46:13.881Z,76.20
2019-03-27T09:48:42.936Z,73.80
2019-03-27T09:51:11.336Z,71.70
2019-03-27T09:53:39.697Z,72.00
2019-03-27T09:56:18.392Z,73.10
2019-03-27T09:58:38.099Z,73.00
2019-03-27T10:01:06.562Z,73.40
2019-03-27T10:03:34.932Z,73.50
2019-03-27T10:06:03.394Z,73.10
2019-03-27T10:08:31.752Z,71.00
2019-03-27T10:11:00.070Z,70.10
2019-03-27T10:13:28.386Z,69.80
2019-03-27T10:15:56.787Z,69.40
2019-03-27T10:18:25.154Z,68.60
2019-03-27T10:20:53.472Z,69.60
2019-03-27T10:23:21.925Z,72.20
2019-03-27T10:25:50.293Z,72.30
2019-03-27T10:28:18.609Z,73.00
2019-03-27T10:30:47.037Z,71.60
2019-03-27T10:33:15.489Z,71.70
2019-03-27T10:35:43.842Z,70.30
2019-03-27T10:38:12.159Z,66.90
2019-03-27T10:40:40.526Z,65.70
2019-03-27T10:43:09.103Z,64.10
2019-03-27T10:45:37.977Z,60.60
2019-03-27T10:48:06.331Z,61.60
2019-03-27T10:50:34.718Z,63.80
2019-03-27T10:53:03.166Z,62.70
2019-03-27T10:55:45.712Z,60.90
2019-03-27T10:58:01.582Z,56.30
2019-03-27T11:00:30.008Z,52.70
2019-03-27T11:02:58.426Z,46.90
2019-03-27T11:05:26.798Z,44.80
2019-03-27T11:07:56.096Z,41.40
2019-03-27T11:10:24.398Z,42.30
2019-03-27T11:12:52.798Z,46.00
2019-03-27T11:15:21.174Z,46.40
2019-03-27T11:17:49.540Z,46.40
2019-03-27T11:20:30.237Z,46.00
2019-03-27T11:22:47.968Z,48.20
2019-03-27T11:25:16.349Z,47.50
2019-03-27T11:27:44.731Z,46.00
2019-03-27T11:30:14.041Z,45.90
2019-03-27T11:32:42.365Z,45.70
2019-03-27T11:35:10.736Z,47.90
2019-03-27T11:37:39.105Z,50.50
2019-03-27T11:40:07.533Z,47.80
2019-03-27T11:42:35.825Z,46.00
2019-03-27T11:45:05.981Z,44.10
2019-03-27T11:47:34.435Z,47.20
2019-03-27T11:50:02.862Z,49.40
2019-03-27T11:52:31.266Z,49.90
2019-03-27T11:54:59.654Z,48.70
2019-03-27T11:57:28.026Z,47.50
2019-03-27T11:59:56.406Z,49.60
2019-03-27T12:02:24.705Z,50.70
2019-03-27T12:04:53.130Z,54.10
2019-03-27T12:07:21.503Z,57.90
2019-03-27T12:09:49.897Z,57.20
2019-03-27T12:12:18.308Z,57.00
2019-03-27T12:14:46.629Z,57.40
2019-03-27T12:17:15.077Z,55.10
2019-03-27T12:19:43.477Z,50.90
2019-03-27T12:22:12.034Z,52.20
2019-03-27T12:24:40.436Z,53.30
2019-03-27T12:27:08.799Z,53.90
2019-03-27T12:29:37.266Z,56.70
2019-03-27T12:32:05.760Z,56.50
2019-03-27T12:34:36.712Z,50.70
2019-03-27T12:37:04.193Z,48.20
2019-03-27T12:39:32.574Z,45.50
2019-03-27T12:42:00.959Z,43.50
2019-03-27T12:44:29.334Z,41.80
2019-03-27T12:46:57.718Z,41.10
2019-03-27T12:49:26.010Z,41.20
2019-03-27T12:51:54.406Z,39.90
2019-03-27T12:54:22.768Z,41.20
2019-03-27T12:56:51.238Z,43.00
2019-03-27T12:59:19.626Z,44.30
2019-03-27T13:01:48.022Z,42.80
2019-03-27T13:04:16.408Z,41.40
2019-03-27T13:06:44.777Z,38.50
2019-03-27T13:09:13.179Z,38.50
2019-03-27T13:11:41.571Z,37.70
2019-03-27T13:14:09.993Z,38.10
2019-03-27T13:16:38.363Z,39.00
2019-03-27T13:19:07.217Z,40.30
2019-03-27T13:21:35.610Z,37.20
2019-03-27T13:24:03.986Z,36.00
2019-03-27T13:26:32.374Z,34.70
2019-03-27T13:29:00.754Z,34.80
2019-03-27T13:31:29.152Z,35.10
2019-03-27T13:33:57.535Z,35.70
2019-03-27T13:36:25.983Z,37.00
2019-03-27T13:38:54.377Z,39.20
2019-03-27T13:41:22.757Z,39.00
2019-03-27T13:43:51.138Z,38.30
2019-03-27T13:46:19.496Z,37.00
2019-03-27T13:48:47.894Z,37.20
2019-03-27T13:51:16.263Z,37.30
2019-03-27T13:53:44.563Z,36.10
2019-03-27T13:56:12.928Z,35.50
2019-03-27T13:58:41.897Z,37.70
2019-03-27T14:01:12.784Z,36.00
2019-03-27T14:03:40.337Z,35.00
2019-03-27T14:06:08.705Z,33.20
2019-03-27T14:08:37.198Z,32.30
2019-03-27T14:11:05.557Z,34.00
2019-03-27T14:13:33.933Z,35.00
2019-03-27T14:16:02.354Z,36.00
2019-03-27T14:18:30.726Z,36.90
2019-03-27T14:21:00.028Z,38.20
2019-03-27T14:23:28.420Z,38.00
2019-03-27T14:25:56.788Z,39.50
2019-03-27T14:28:25.199Z,38.80
2019-03-27T14:30:55.114Z,37.60
2019-03-27T14:33:23.398Z,37.60
2019-03-27T14:35:51.781Z,38.40
2019-03-27T14:38:20.170Z,38.40
2019-03-27T14:40:48.540Z,37.80
2019-03-27T14:43:16.946Z,37.10
2019-03-27T14:45:45.333Z,37.50
2019-03-27T14:48:13.709Z,37.00
2019-03-27T14:50:42.102Z,36.90
2019-03-27T14:53:10.555Z,37.40
2019-03-27T14:55:38.922Z,37.40
2019-03-27T14:58:07.305Z,37.50
2019-03-27T15:00:35.682Z,36.70
2019-03-27T15:03:04.153Z,36.10
2019-03-27T15:05:32.513Z,35.00
2019-03-27T15:08:03.959Z,33.30
2019-03-27T15:10:30.839Z,31.80
2019-03-27T15:12:59.205Z,33.70
2019-03-27T15:15:27.594Z,35.00
2019-03-27T15:17:56.185Z,36.90
2019-03-27T15:20:24.638Z,37.60
2019-03-27T15:22:53.014Z,36.40
2019-03-27T15:25:21.407Z,35.00
2019-03-27T15:27:49.794Z,34.90
2019-03-27T15:30:18.762Z,35.70
2019-03-27T15:32:47.166Z,36.90
2019-03-27T15:35:15.893Z,35.90
2019-03-27T15:37:44.256Z,35.70
2019-03-27T15:40:12.602Z,36.40
2019-03-27T15:42:41.255Z,37.60
2019-03-27T15:45:09.749Z,36.60
2019-03-27T15:47:38.204Z,36.10
2019-03-27T15:50:06.676Z,35.60
2019-03-27T15:52:36.709Z,38.00
2019-03-27T15:55:05.152Z,38.80
2019-03-27T15:57:34.137Z,39.20
2019-03-27T16:00:03.007Z,39.10
2019-03-27T16:02:31.425Z,39.20
2019-03-27T16:04:59.806Z,40.30
2019-03-27T16:07:31.148Z,39.70
2019-03-27T16:09:58.217Z,39.90
2019-03-27T16:12:26.635Z,40.60
2019-03-27T16:14:55.008Z,40.30
2019-03-27T16:17:23.460Z,40.50
2019-03-27T16:19:51.842Z,40.50
2019-03-27T16:22:20.138Z,41.00
2019-03-27T16:24:48.546Z,41.20
2019-03-27T16:27:16.868Z,42.30
2019-03-27T16:29:45.237Z,43.00
2019-03-27T16:32:13.564Z,43.30
2019-03-27T16:34:42.009Z,44.80
2019-03-27T16:37:10.428Z,46.90
2019-03-27T16:39:38.814Z,47.50
2019-03-27T16:42:07.281Z,48.00
2019-03-27T16:44:35.575Z,48.60
2019-03-27T16:47:03.968Z,48.90
2019-03-27T16:49:32.347Z,49.80
2019-03-27T16:52:00.746Z,51.10
2019-03-27T16:54:30.087Z,52.00
2019-03-27T16:56:58.469Z,52.80
2019-03-27T16:59:26.836Z,53.50
2019-03-27T17:01:55.265Z,54.30
2019-03-27T17:04:23.633Z,54.70
2019-03-27T17:06:52.041Z,55.40
2019-03-27T17:09:20.492Z,56.10
2019-03-27T17:11:48.872Z,56.60
2019-03-27T17:14:17.271Z,56.70
2019-03-27T17:16:45.646Z,57.20
2019-03-27T17:19:13.943Z,57.30
2019-03-27T17:21:42.322Z,57.50
2019-03-27T17:24:10.879Z,57.70
2019-03-27T17:26:39.248Z,58.30
2019-03-27T17:29:07.671Z,58.50
2019-03-27T17:31:36.038Z,58.80
2019-03-27T17:34:04.424Z,59.40
2019-03-27T17:36:32.786Z,59.80
2019-03-27T17:39:01.171Z,60.00
2019-03-27T17:41:29.539Z,60.00
2019-03-27T17:43:57.867Z,60.40
2019-03-27T17:46:26.230Z,60.30
2019-03-27T17:48:54.663Z,61.00
2019-03-27T17:51:23.955Z,61.80
2019-03-27T17:53:52.323Z,62.20
2019-03-27T17:56:20.733Z,62.90
2019-03-27T17:58:49.096Z,63.20
2019-03-27T18:01:17.560Z,63.70
2019-03-27T18:03:45.955Z,64.60
2019-03-27T18:06:14.323Z,65.00
2019-03-27T18:08:43.070Z,66.10
2019-03-27T18:11:11.514Z,66.40
2019-03-27T18:13:39.898Z,67.00
2019-03-27T18:16:08.438Z,68.00
2019-03-27T18:18:36.830Z,69.00
2019-03-27T18:21:05.326Z,69.20
2019-03-27T18:23:45.214Z,69.10
2019-03-27T18:26:03.870Z,69.80
2019-03-27T18:28:32.226Z,69.90
2019-03-27T18:31:00.680Z,71.30
2019-03-27T18:33:29.078Z,71.60
2019-03-27T18:35:57.437Z,71.70
2019-03-27T18:38:25.831Z,72.60
2019-03-27T18:40:54.213Z,73.10
2019-03-27T18:43:22.581Z,73.10
2019-03-27T18:45:50.887Z,73.10
2019-03-27T18:48:20.169Z,73.90
2019-03-27T18:50:48.490Z,74.20
2019-03-27T18:53:16.873Z,76.20
2019-03-27T18:55:45.243Z,76.90
2019-03-27T18:58:13.673Z,78.80
2019-03-27T19:00:42.119Z,78.70
2019-03-27T19:03:10.502Z,78.90
2019-03-27T19:05:39.006Z,79.00
2019-03-27T19:08:07.421Z,80.30
2019-03-27T19:10:35.871Z,81.30
2019-03-27T19:13:04.238Z,82.30
2019-03-27T19:15:32.686Z,82.80
2019-03-27T19:18:01.608Z,83.40
2019-03-27T19:20:30.081Z,83.10
2019-03-27T19:22:58.486Z,83.50
2019-03-27T19:25:26.855Z,83.50
2019-03-27T19:27:57.046Z,83.30
2019-03-27T19:30:25.425Z,84.20
2019-03-27T19:32:53.837Z,85.50
2019-03-27T19:35:22.199Z,86.20
2019-03-27T19:37:50.599Z,86.00
2019-03-27T19:40:19.051Z,84.30
2019-03-27T19:42:47.444Z,85.70
2019-03-27T19:45:15.869Z,87.20
2019-03-27T19:47:44.265Z,87.80
2019-03-27T19:50:12.581Z,88.30
2019-03-27T19:52:41.039Z,89.40
2019-03-27T19:55:09.448Z,89.20
2019-03-27T19:57:37.919Z,90.10
2019-03-27T20:00:07.643Z,90.40
2019-03-27T20:02:36.007Z,90.50
2019-03-27T20:05:06.778Z,90.30
2019-03-27T20:07:36.129Z,89.30
2019-03-27T20:10:06.248Z,88.00
2019-03-27T20:12:34.918Z,89.90
2019-03-27T20:15:11.676Z,90.30
2019-03-27T20:17:34.746Z,90.20
2019-03-27T20:20:07.171Z,90.10
2019-03-27T20:22:34.254Z,90.20
2019-03-27T20:25:02.623Z,90.90
2019-03-27T20:27:31.007Z,91.10
2019-03-27T20:29:59.400Z,91.00
2019-03-27T20:32:27.807Z,91.00
2019-03-27T20:34:56.174Z,90.60
2019-03-27T20:37:24.579Z,90.50
2019-03-27T20:39:52.973Z,90.90
2019-03-27T20:42:21.369Z,91.30
2019-03-27T20:44:49.762Z,91.80
2019-03-27T20:47:18.281Z,91.80
2019-03-27T20:49:46.653Z,91.40
2019-03-27T20:52:15.131Z,91.10
2019-03-27T20:54:54.241Z,92.00
2019-03-27T20:57:13.549Z,91.50
2019-03-27T20:59:41.953Z,91.30
2019-03-27T21:02:10.335Z,91.20
2019-03-27T21:04:38.720Z,91.20
2019-03-27T21:07:07.083Z,91.60
2019-03-27T21:09:35.478Z,91.70
2019-03-27T21:12:04.126Z,91.60
2019-03-27T21:14:33.132Z,91.40
2019-03-27T21:17:01.574Z,91.20
2019-03-27T21:19:29.957Z,91.10
2019-03-27T21:21:58.319Z,91.30
2019-03-27T21:24:26.725Z,91.60
2019-03-27T21:26:55.091Z,91.30
2019-03-27T21:29:23.485Z,91.50
2019-03-27T21:31:52.128Z,91.60
2019-03-27T21:34:20.521Z,92.10
2019-03-27T21:36:48.895Z,92.10
2019-03-27T21:39:17.281Z,92.00
2019-03-27T21:41:45.651Z,91.90
2019-03-27T21:44:14.072Z,91.60
2019-03-27T21:46:42.430Z,91.80
2019-03-27T21:49:10.813Z,91.90
2019-03-27T21:51:39.273Z,92.10
2019-03-27T21:54:07.588Z,92.10
2019-03-27T21:56:35.958Z,92.60
2019-03-27T21:59:04.371Z,92.50
2019-03-27T22:01:32.802Z,92.30
2019-03-27T22:04:01.185Z,92.40
2019-03-27T22:06:29.572Z,92.60
2019-03-27T22:08:57.950Z,92.60
2019-03-27T22:11:26.961Z,92.60
2019-03-27T22:13:55.355Z,93.00
2019-03-27T22:16:23.798Z,93.00
2019-03-27T22:18:52.193Z,92.80
2019-03-27T22:21:20.625Z,92.90
2019-03-27T22:23:49.021Z,92.90
2019-03-27T22:26:17.440Z,92.90
2019-03-27T22:28:47.730Z,92.80
2019-03-27T22:31:15.783Z,92.40
2019-03-27T22:33:47.921Z,92.50
2019-03-27T22:36:15.119Z,92.40
2019-03-27T22:38:43.657Z,92.60
2019-03-27T22:41:12.049Z,92.50
2019-03-27T22:43:40.433Z,92.60
2019-03-27T22:46:08.820Z,93.00
2019-03-27T22:48:37.192Z,92.90
2019-03-27T22:51:05.567Z,92.60
2019-03-27T22:53:33.938Z,92.80
2019-03-27T22:56:02.266Z,93.00
2019-03-27T22:58:30.666Z,93.10
2019-03-27T23:01:00.955Z,93.30
2019-03-27T23:03:29.052Z,93.40
2019-03-27T23:05:57.416Z,93.80
2019-03-27T23:08:25.794Z,93.90
2019-03-27T23:10:54.089Z,93.70
2019-03-27T23:13:23.246Z,93.90
2019-03-27T23:15:51.616Z,93.80
2019-03-27T23:18:19.982Z,94.00
2019-03-27T23:20:48.433Z,94.00
2019-03-27T23:23:16.724Z,94.00
2019-03-27T23:25:45.043Z,93.80
2019-03-27T23:28:13.402Z,93.90
2019-03-27T23:30:42.219Z,94.10
2019-03-27T23:33:10.585Z,94.30
2019-03-27T23:35:39.007Z,94.80
2019-03-27T23:38:07.437Z,94.50
2019-03-27T23:40:35.842Z,94.70
2019-03-27T23:43:04.269Z,94.60
2019-03-27T23:45:32.642Z,94.70
2019-03-27T23:48:01.014Z,94.60
2019-03-27T23:50:29.568Z,94.80
2019-03-27T23:52:57.956Z,94.80
2019-03-27T23:55:26.318Z,94.90
2019-03-27T23:57:54.705Z,94.80
